Time;durP1;ratioP1;P1;durP2;ratioP2;P2;SDS_P1;SDS_P2;PMS_P1;PMS_P2;Temp;Humidity;BMP_temperature;BMP_pressure;BME280_temperature;BME280_humidity;BME280_pressure;Samples;Min_cycle;Max_cycle;Signal;HPM_P1;HPM_P2
2023/01/28 00:00:00;;;;;;;4.53;4.13;;;14.20;58.30;;;;;;4992194;28;20474;-82
2023/01/28 00:02:29;;;;;;;5.23;4.70;;;14.20;58.40;;;;;;4993186;28;20445;-81
2023/01/28 00:04:57;;;;;;;4.20;3.90;;;14.20;58.40;;;;;;4992652;28;20449;-81
2023/01/28 00:07:25;;;;;;;10.60;6.10;;;14.20;58.40;;;;;;4988269;28;20481;-80
2023/01/28 00:09:53;;;;;;;6.80;5.53;;;14.20;58.20;;;;;;4991847;28;20474;-82
2023/01/28 00:12:21;;;;;;;7.03;5.67;;;14.20;58.30;;;;;;4990006;28;20532;-79
2023/01/28 00:14:49;;;;;;;5.47;5.00;;;14.20;58.20;;;;;;4993537;28;20454;-82
2023/01/28 00:17:18;;;;;;;6.00;5.40;;;14.20;58.30;;;;;;4993486;28;20803;-81
2023/01/28 00:19:47;;;;;;;5.23;4.80;;;14.20;58.20;;;;;;4990830;28;20532;-81
2023/01/28 00:22:15;;;;;;;5.43;4.93;;;14.20;58.20;;;;;;4992868;28;20483;-81
2023/01/28 00:24:43;;;;;;;7.03;5.50;;;14.20;58.30;;;;;;4992691;28;20449;-81
2023/01/28 00:27:11;;;;;;;6.23;5.50;;;14.20;58.30;;;;;;4992043;28;20469;-81
2023/01/28 00:29:39;;;;;;;6.23;5.60;;;14.20;58.30;;;;;;4995417;28;20437;-80
2023/01/28 00:32:07;;;;;;;6.77;4.80;;;14.20;58.30;;;;;;4998363;28;20441;-79
2023/01/28 00:34:35;;;;;;;5.67;4.93;;;14.10;58.20;;;;;;4998462;28;20433;-80
2023/01/28 00:37:05;;;;;;;6.83;5.27;;;14.20;58.20;;;;;;4999271;28;20442;-80
2023/01/28 00:39:33;;;;;;;5.23;4.73;;;14.10;58.10;;;;;;4999073;28;20528;-81
2023/01/28 00:42:01;;;;;;;6.80;4.87;;;14.10;58.10;;;;;;4992326;28;20509;-80
2023/01/28 00:44:29;;;;;;;5.50;4.80;;;14.10;58.20;;;;;;4992502;28;20457;-81
2023/01/28 00:46:57;;;;;;;4.90;4.50;;;14.10;58.10;;;;;;4999568;28;20445;-81
2023/01/28 00:49:25;;;;;;;5.40;4.90;;;14.10;58.20;;;;;;4999002;28;20472;-81
2023/01/28 00:51:53;;;;;;;5.23;4.70;;;14.10;58.10;;;;;;4996216;28;20453;-81
2023/01/28 00:54:22;;;;;;;4.93;4.47;;;14.10;58.10;;;;;;4992512;28;20449;-80
2023/01/28 00:56:52;;;;;;;4.97;4.50;;;14.10;58.10;;;;;;4989520;28;20476;-82
2023/01/28 00:59:20;;;;;;;4.67;4.33;;;14.10;58.10;;;;;;4993544;28;20462;-80
2023/01/28 01:01:48;;;;;;;5.40;4.90;;;14.10;58.20;;;;;;4986996;28;20504;-81
2023/01/28 01:04:25;;;;;;;5.07;4.53;;;14.10;58.20;;;;;;4992437;28;20471;-81
2023/01/28 01:06:53;;;;;;;5.50;4.97;;;14.10;58.10;;;;;;4999037;28;20605;-80
2023/01/28 01:09:23;;;;;;;4.73;4.23;;;14.10;58.20;;;;;;4994798;28;20463;-80
2023/01/28 01:11:50;;;;;;;4.53;4.13;;;14.00;58.10;;;;;;4998129;28;20473;-82
2023/01/28 01:14:18;;;;;;;4.97;4.50;;;14.10;58.10;;;;;;4998222;28;20445;-81
2023/01/28 01:16:46;;;;;;;5.57;4.40;;;14.00;58.00;;;;;;4995554;28;20456;-80
2023/01/28 01:19:14;;;;;;;5.70;5.10;;;14.00;58.00;;;;;;4994297;28;20466;-83
2023/01/28 01:21:43;;;;;;;4.23;3.83;;;14.10;58.00;;;;;;4997071;28;20477;-80
2023/01/28 01:24:11;;;;;;;4.40;4.00;;;14.00;58.00;;;;;;4998775;28;20465;-81
2023/01/28 01:26:40;;;;;;;5.33;4.73;;;14.00;58.00;;;;;;4991866;28;21061;-81
2023/01/28 01:29:09;;;;;;;4.93;4.53;;;14.00;58.00;;;;;;4997108;28;20461;-81
2023/01/28 01:31:37;;;;;;;4.37;4.07;;;14.00;58.00;;;;;;4997524;28;20501;-81
2023/01/28 01:34:05;;;;;;;4.30;3.90;;;14.00;58.00;;;;;;4992089;28;20458;-81
2023/01/28 01:36:33;;;;;;;4.13;3.77;;;14.00;58.00;;;;;;5002680;28;20453;-81
2023/01/28 01:39:01;;;;;;;4.47;4.07;;;14.00;57.90;;;;;;4999004;28;20453;-80
2023/01/28 01:41:30;;;;;;;11.93;4.33;;;14.00;57.90;;;;;;4991259;28;20473;-82
2023/01/28 01:44:00;;;;;;;4.20;3.90;;;14.00;58.00;;;;;;4997618;28;20491;-80
2023/01/28 01:46:33;;;;;;;4.67;4.00;;;14.00;57.90;;;;;;5002160;28;20440;-81
2023/01/28 01:49:05;;;;;;;4.97;4.10;;;14.00;57.90;;;;;;5000996;28;20449;-81
2023/01/28 01:51:34;;;;;;;4.13;3.83;;;13.90;57.80;;;;;;4997651;28;20461;-81
2023/01/28 01:54:02;;;;;;;3.93;3.63;;;13.90;57.80;;;;;;4998071;28;20460;-81
2023/01/28 01:56:32;;;;;;;4.03;3.73;;;14.00;57.80;;;;;;4997558;28;20469;-80
2023/01/28 01:59:02;;;;;;;4.30;3.90;;;13.90;57.70;;;;;;5004050;28;20444;-81
2023/01/28 02:01:31;;;;;;;4.60;3.73;;;13.90;57.70;;;;;;4985527;28;20589;-81
2023/01/28 02:04:04;;;;;;;4.47;3.70;;;13.90;57.80;;;;;;5003334;28;20444;-81
2023/01/28 02:06:32;;;;;;;4.03;3.73;;;13.90;57.70;;;;;;4996671;28;20542;-81
2023/01/28 02:09:00;;;;;;;3.90;3.57;;;13.90;57.80;;;;;;4996366;28;20441;-80
2023/01/28 02:11:30;;;;;;;3.60;3.27;;;13.90;57.60;;;;;;4996668;28;20465;-81
2023/01/28 02:13:59;;;;;;;4.30;3.90;;;13.80;57.60;;;;;;4996397;28;20528;-81
2023/01/28 02:16:28;;;;;;;3.50;3.30;;;13.80;57.50;;;;;;4996729;28;20441;-81
2023/01/28 02:18:57;;;;;;;4.27;3.53;;;13.80;57.60;;;;;;4995598;28;20454;-81
2023/01/28 02:22:03;;;;;;;3.97;3.67;;;13.80;57.60;;;;;;4991528;28;20469;-81
2023/01/28 02:24:52;;;;;;;3.87;3.57;;;13.80;57.40;;;;;;4988757;28;20449;-81
2023/01/28 02:27:23;;;;;;;3.90;3.50;;;13.80;57.50;;;;;;4993513;28;20465;-81
2023/01/28 02:29:56;;;;;;;3.63;3.33;;;13.80;57.50;;;;;;4994640;28;20469;-81
2023/01/28 02:32:25;;;;;;;3.73;3.43;;;13.80;57.40;;;;;;4988677;28;20445;-81
2023/01/28 02:34:56;;;;;;;4.80;3.57;;;13.70;57.30;;;;;;4995061;28;20464;-80
2023/01/28 02:37:27;;;;;;;3.60;2.83;;;13.70;57.40;;;;;;4992395;28;20464;-81
2023/01/28 02:39:57;;;;;;;3.90;3.20;;;13.70;57.30;;;;;;4994930;28;20481;-81
2023/01/28 02:42:26;;;;;;;3.63;3.33;;;13.70;57.40;;;;;;4993788;28;20473;-82
2023/01/28 02:44:56;;;;;;;3.87;3.50;;;13.70;57.30;;;;;;4994473;28;20449;-81
2023/01/28 02:50:11;;;;;;;4.73;3.07;;;13.70;57.10;;;;;;4987984;28;20488;-81
2023/01/28 02:55:38;;;;;;;3.00;2.80;;;13.70;57.20;;;;;;4989681;28;20454;-81
2023/01/28 02:58:10;;;;;;;3.50;3.20;;;13.60;57.20;;;;;;4995664;28;20461;-81
2023/01/28 03:00:44;;;;;;;3.20;2.90;;;13.60;57.00;;;;;;4996318;28;20488;-81
2023/01/28 03:03:15;;;;;;;3.00;2.70;;;13.60;57.00;;;;;;4995660;28;20469;-81
2023/01/28 03:06:02;;;;;;;3.63;3.40;;;13.60;57.00;;;;;;4995300;28;20457;-81
2023/01/28 03:39:02;;;;;;;4.00;3.30;;;13.30;56.40;;;;;;4996281;28;20973;-81
2023/01/28 03:41:29;;;;;;;2.83;2.63;;;13.30;56.30;;;;;;4984977;28;20483;-82
2023/01/28 03:46:39;;;;;;;3.03;2.83;;;13.30;56.20;;;;;;4975225;28;20457;-81
2023/01/28 03:49:08;;;;;;;3.73;3.43;;;13.30;56.20;;;;;;4991345;28;20461;-82
2023/01/28 03:51:36;;;;;;;3.10;2.90;;;13.30;56.10;;;;;;4996593;28;20842;-82
2023/01/28 03:54:04;;;;;;;2.97;2.77;;;13.30;56.20;;;;;;4995954;28;20449;-82
2023/01/28 03:56:36;;;;;;;3.47;3.17;;;13.30;56.10;;;;;;4989777;28;20472;-81
2023/01/28 03:59:04;;;;;;;3.00;2.80;;;13.30;56.10;;;;;;4994520;28;20480;-82
2023/01/28 04:01:32;;;;;;;4.30;2.97;;;13.30;56.00;;;;;;4990461;28;20478;-82
2023/01/28 04:03:59;;;;;;;3.00;2.80;;;13.20;56.00;;;;;;4990215;28;20512;-82
2023/01/28 04:06:29;;;;;;;3.00;2.80;;;13.20;56.00;;;;;;4996049;28;20641;-83
2023/01/28 04:08:58;;;;;;;3.77;3.07;;;13.20;55.90;;;;;;4998773;28;20457;-82
2023/01/28 04:11:26;;;;;;;3.40;3.10;;;13.20;55.70;;;;;;4998109;28;20473;-82
2023/01/28 04:13:54;;;;;;;3.10;2.90;;;13.20;55.80;;;;;;4998023;28;20457;-82
2023/01/28 04:16:22;;;;;;;3.27;3.03;;;13.20;56.40;;;;;;4998582;28;20456;-82
2023/01/28 04:18:50;;;;;;;3.20;3.00;;;13.10;55.70;;;;;;4998441;28;20524;-82
2023/01/28 04:21:19;;;;;;;3.10;2.90;;;13.10;55.50;;;;;;4992631;28;20475;-80
2023/01/28 04:23:48;;;;;;;3.00;2.80;;;13.10;55.60;;;;;;4997964;28;20480;-80
2023/01/28 04:26:16;;;;;;;3.20;2.90;;;13.10;55.60;;;;;;4999369;28;20465;-80
2023/01/28 04:28:44;;;;;;;3.50;3.20;;;13.10;55.50;;;;;;4996844;28;20489;-81
2023/01/28 04:31:12;;;;;;;3.07;2.77;;;13.00;55.50;;;;;;4997826;28;20481;-80
2023/01/28 04:33:40;;;;;;;3.23;3.03;;;13.10;55.40;;;;;;4999681;28;20449;-80
2023/01/28 04:36:08;;;;;;;3.20;2.90;;;13.00;55.30;;;;;;4997108;28;20859;-80
2023/01/28 04:38:36;;;;;;;2.93;2.73;;;13.00;55.30;;;;;;4999262;28;20456;-81
2023/01/28 04:41:06;;;;;;;3.53;3.23;;;13.00;55.20;;;;;;4997721;28;20476;-81
2023/01/28 04:43:34;;;;;;;3.40;3.13;;;13.00;55.20;;;;;;4992862;28;20502;-80
2023/01/28 04:46:02;;;;;;;3.00;2.80;;;13.00;55.10;;;;;;4997709;28;20468;-81
2023/01/28 04:48:30;;;;;;;3.30;3.10;;;13.00;55.10;;;;;;4992090;28;20473;-81
2023/01/28 04:50:58;;;;;;;3.40;3.20;;;12.90;55.00;;;;;;4997867;28;20487;-80
2023/01/28 04:53:27;;;;;;;3.80;3.50;;;12.90;55.00;;;;;;4997406;28;20459;-80
2023/01/28 04:55:54;;;;;;;3.63;3.33;;;12.90;54.90;;;;;;4996539;28;20470;-80
2023/01/28 04:58:24;;;;;;;3.10;2.90;;;12.80;54.90;;;;;;4996526;28;20457;-81
2023/01/28 05:00:55;;;;;;;4.03;3.63;;;12.90;54.80;;;;;;4997334;28;20482;-80
2023/01/28 05:03:24;;;;;;;4.03;3.63;;;12.90;55.00;;;;;;4995897;28;20504;-81
2023/01/28 05:05:52;;;;;;;3.70;3.40;;;12.90;54.90;;;;;;4995635;28;20461;-79
2023/01/28 05:08:20;;;;;;;4.77;3.37;;;12.80;54.80;;;;;;4995111;28;20457;-80
2023/01/28 05:10:48;;;;;;;3.57;3.23;;;12.90;54.90;;;;;;4996730;28;20484;-80
2023/01/28 05:13:15;;;;;;;3.87;3.50;;;12.80;54.80;;;;;;4996063;28;20469;-81
2023/01/28 05:15:51;;;;;;;3.20;3.00;;;12.80;54.70;;;;;;4991255;28;20536;-81
2023/01/28 05:18:18;;;;;;;6.10;3.10;;;12.80;54.70;;;;;;4993803;28;20464;-81
2023/01/28 05:20:47;;;;;;;4.00;3.60;;;12.80;54.80;;;;;;4994548;28;20473;-81
2023/01/28 05:23:15;;;;;;;3.80;3.40;;;12.80;54.70;;;;;;4993650;28;20508;-80
2023/01/28 05:25:44;;;;;;;4.00;3.70;;;12.70;54.60;;;;;;4995685;28;20473;-80
2023/01/28 05:28:11;;;;;;;3.70;3.40;;;12.70;54.60;;;;;;4995504;28;20458;-80
2023/01/28 05:30:40;;;;;;;4.60;3.87;;;12.70;54.70;;;;;;4994640;28;20472;-81
2023/01/28 05:33:09;;;;;;;4.67;3.67;;;12.70;54.50;;;;;;4993938;28;20463;-81
2023/01/28 05:35:37;;;;;;;3.40;3.10;;;12.60;54.50;;;;;;4993957;28;20449;-81
2023/01/28 05:38:05;;;;;;;3.77;3.40;;;12.60;54.50;;;;;;4994333;28;20460;-81
2023/01/28 05:40:33;;;;;;;6.07;4.10;;;12.60;54.50;;;;;;4993753;28;20985;-80
2023/01/28 05:43:01;;;;;;;4.23;3.80;;;12.60;54.40;;;;;;4990408;28;20453;-81
2023/01/28 05:45:29;;;;;;;4.27;3.67;;;12.60;54.50;;;;;;4994509;28;20454;-80
2023/01/28 05:47:57;;;;;;;3.93;3.53;;;12.60;54.40;;;;;;4993457;28;20556;-80
2023/01/28 05:50:26;;;;;;;4.53;3.70;;;12.60;54.30;;;;;;4991756;28;20473;-80
2023/01/28 05:52:55;;;;;;;4.67;4.17;;;12.60;54.50;;;;;;4995304;28;20460;-82
2023/01/28 05:55:23;;;;;;;4.10;3.70;;;12.60;54.30;;;;;;4993946;28;20457;-80
2023/01/28 05:57:51;;;;;;;4.43;3.77;;;12.60;54.30;;;;;;4993826;28;20457;-81
2023/01/28 06:00:20;;;;;;;4.97;4.37;;;12.50;54.30;;;;;;4993744;28;20473;-81
2023/01/28 06:02:48;;;;;;;3.80;3.50;;;12.60;54.30;;;;;;4994765;28;20453;-80
2023/01/28 06:05:16;;;;;;;3.93;3.63;;;12.60;54.20;;;;;;4993527;28;20476;-81
2023/01/28 06:07:46;;;;;;;5.13;4.23;;;12.50;54.10;;;;;;4994148;28;20465;-82
2023/01/28 06:10:13;;;;;;;3.80;3.50;;;12.50;54.10;;;;;;4991681;28;20472;-81
2023/01/28 06:12:42;;;;;;;3.93;3.53;;;12.50;54.20;;;;;;4994620;28;20583;-84
2023/01/28 06:15:11;;;;;;;5.10;3.87;;;12.40;54.20;;;;;;4992444;28;20452;-84
2023/01/28 06:17:39;;;;;;;6.40;4.33;;;12.40;54.10;;;;;;4988899;28;20449;-84
2023/01/28 06:20:08;;;;;;;4.20;3.80;;;12.40;54.00;;;;;;4993245;28;20480;-84
2023/01/28 06:22:36;;;;;;;4.80;4.00;;;12.40;54.10;;;;;;4987424;28;20483;-84
2023/01/28 06:25:07;;;;;;;4.90;4.10;;;12.40;54.00;;;;;;4991228;28;20466;-83
2023/01/28 06:27:35;;;;;;;4.43;4.00;;;12.40;54.00;;;;;;4990709;28;20473;-83
2023/01/28 06:30:03;;;;;;;4.17;3.83;;;12.40;53.90;;;;;;4992838;28;20492;-83
2023/01/28 06:32:32;;;;;;;4.77;4.17;;;12.30;53.90;;;;;;4993523;28;20457;-83
2023/01/28 06:35:00;;;;;;;4.53;4.00;;;12.30;53.80;;;;;;4997759;28;20453;-82
2023/01/28 06:37:28;;;;;;;5.00;3.70;;;12.40;53.90;;;;;;4995534;28;20473;-83
2023/01/28 06:39:57;;;;;;;5.40;4.27;;;12.30;53.90;;;;;;4994986;28;20485;-83
2023/01/28 06:42:26;;;;;;;4.53;3.70;;;12.30;53.80;;;;;;4991949;28;20469;-83
2023/01/28 06:44:54;;;;;;;5.03;4.50;;;12.30;53.70;;;;;;4992732;28;20476;-83
2023/01/28 06:47:22;;;;;;;4.40;3.90;;;12.30;53.70;;;;;;4992399;28;20980;-82
2023/01/28 06:49:50;;;;;;;4.80;3.90;;;12.30;53.70;;;;;;4989306;28;20481;-82
2023/01/28 06:52:18;;;;;;;4.43;4.03;;;12.30;53.70;;;;;;4991329;28;20465;-83
2023/01/28 06:54:46;;;;;;;4.90;3.77;;;12.30;53.70;;;;;;4992764;28;20453;-83
2023/01/28 06:57:14;;;;;;;4.77;3.90;;;12.30;53.80;;;;;;4991739;28;20469;-83
2023/01/28 06:59:44;;;;;;;4.73;4.10;;;12.20;53.60;;;;;;4990780;28;20476;-83
2023/01/28 07:02:12;;;;;;;4.87;4.13;;;12.20;53.60;;;;;;4991160;28;20481;-83
2023/01/28 07:04:40;;;;;;;5.53;4.10;;;12.20;53.70;;;;;;4992482;28;20500;-84
2023/01/28 07:07:08;;;;;;;5.00;3.90;;;12.20;53.70;;;;;;4992465;28;20460;-83
2023/01/28 07:09:36;;;;;;;6.10;4.57;;;12.20;53.60;;;;;;4989248;28;20463;-85
2023/01/28 07:12:04;;;;;;;6.27;4.27;;;12.20;53.70;;;;;;4991076;28;20481;-81
2023/01/28 07:14:32;;;;;;;4.73;4.30;;;12.20;54.20;;;;;;4992199;28;20468;-82
2023/01/28 07:17:02;;;;;;;4.20;3.80;;;12.20;53.60;;;;;;4990728;28;20461;-82
2023/01/28 07:19:30;;;;;;;5.37;4.70;;;12.20;53.50;;;;;;5005139;28;20452;-83
2023/01/28 07:22:01;;;;;;;5.47;4.37;;;12.20;53.70;;;;;;5005676;28;20440;-83
2023/01/28 07:24:29;;;;;;;4.23;3.83;;;12.10;53.60;;;;;;4996526;28;20476;-83
2023/01/28 07:26:58;;;;;;;6.03;4.73;;;12.20;53.60;;;;;;5001184;28;20473;-84
2023/01/28 07:29:26;;;;;;;4.80;4.30;;;12.20;53.60;;;;;;4998916;28;20457;-83
2023/01/28 07:31:53;;;;;;;5.77;4.37;;;12.10;53.50;;;;;;4998409;28;20429;-83
2023/01/28 07:34:23;;;;;;;5.60;4.70;;;12.20;53.60;;;;;;5011577;28;20444;-83
2023/01/28 07:36:51;;;;;;;4.67;4.27;;;12.20;53.70;;;;;;5008319;28;20449;-84
2023/01/28 07:39:19;;;;;;;5.27;4.50;;;12.20;53.60;;;;;;4998533;28;20461;-84
2023/01/28 07:41:47;;;;;;;4.57;3.97;;;12.20;53.60;;;;;;4991786;28;20473;-84
2023/01/28 07:44:15;;;;;;;5.23;4.47;;;12.20;53.60;;;;;;4998731;28;20453;-84
2023/01/28 07:46:43;;;;;;;3.87;3.57;;;12.20;53.70;;;;;;4994089;28;20460;-84
2023/01/28 07:49:12;;;;;;;5.17;4.27;;;12.20;53.70;;;;;;4996976;28;20457;-84
2023/01/28 07:51:41;;;;;;;5.40;4.40;;;12.20;53.60;;;;;;4996917;28;20481;-84
2023/01/28 07:54:09;;;;;;;6.13;4.60;;;12.20;53.60;;;;;;5000310;28;20483;-83
2023/01/28 07:56:37;;;;;;;4.63;3.63;;;12.20;54.20;;;;;;5000276;28;20473;-83
2023/01/28 07:59:05;;;;;;;5.30;3.93;;;12.20;53.70;;;;;;4995966;28;20461;-82
2023/01/28 08:01:33;;;;;;;5.00;4.17;;;12.20;53.60;;;;;;4998648;28;20476;-84
2023/01/28 08:04:01;;;;;;;5.67;4.80;;;12.20;53.80;;;;;;4999890;28;20504;-83
2023/01/28 08:06:29;;;;;;;5.50;4.37;;;12.20;53.80;;;;;;4998565;28;20480;-83
2023/01/28 08:08:58;;;;;;;4.43;4.00;;;12.20;53.70;;;;;;4999135;28;20457;-84
2023/01/28 08:11:26;;;;;;;5.20;4.23;;;12.20;53.80;;;;;;4999768;28;20477;-83
2023/01/28 08:13:54;;;;;;;5.03;4.53;;;12.20;53.70;;;;;;4997906;28;20454;-83
2023/01/28 08:16:22;;;;;;;5.80;4.40;;;12.20;53.80;;;;;;4998584;28;20464;-83
2023/01/28 08:18:50;;;;;;;5.30;4.53;;;12.20;53.80;;;;;;4995618;28;20453;-83
2023/01/28 08:21:17;;;;;;;5.63;4.20;;;12.20;53.60;;;;;;4997653;28;20504;-83
2023/01/28 08:23:45;;;;;;;6.70;4.77;;;12.30;53.80;;;;;;4995430;28;20472;-83
2023/01/28 08:26:15;;;;;;;5.93;4.40;;;12.30;53.80;;;;;;5000237;28;20479;-83
2023/01/28 08:28:43;;;;;;;5.00;4.40;;;12.30;53.90;;;;;;4998299;28;20470;-83
2023/01/28 08:31:11;;;;;;;4.23;3.83;;;12.30;53.90;;;;;;4996755;28;20477;-83
2023/01/28 08:33:39;;;;;;;5.20;4.17;;;12.40;54.00;;;;;;4999078;28;20457;-83
2023/01/28 08:36:08;;;;;;;4.70;4.30;;;12.40;54.00;;;;;;4994893;28;20456;-83
2023/01/28 08:38:36;;;;;;;4.63;4.23;;;12.50;54.00;;;;;;4998212;28;20445;-83
2023/01/28 08:41:04;;;;;;;5.77;4.43;;;12.60;54.20;;;;;;4997345;28;20475;-83
2023/01/28 08:43:33;;;;;;;5.00;4.30;;;12.60;54.20;;;;;;4995439;28;20464;-83
2023/01/28 08:46:01;;;;;;;5.00;4.27;;;12.70;54.90;;;;;;4998496;28;20469;-83
2023/01/28 08:48:29;;;;;;;6.40;4.50;;;12.80;54.50;;;;;;4995775;28;20464;-83
2023/01/28 08:50:58;;;;;;;6.77;4.80;;;12.90;54.70;;;;;;4998306;28;20564;-83
2023/01/28 08:53:27;;;;;;;5.07;4.43;;;13.00;54.80;;;;;;4997030;28;20477;-83
2023/01/28 08:55:55;;;;;;;6.13;4.63;;;13.10;54.90;;;;;;4993950;28;20481;-83
2023/01/28 08:58:23;;;;;;;4.47;4.07;;;13.20;55.10;;;;;;4998243;28;20544;-84
2023/01/28 09:00:52;;;;;;;4.70;4.07;;;13.40;55.30;;;;;;4990771;28;20499;-83
2023/01/28 09:03:20;;;;;;;4.40;4.00;;;13.50;55.50;;;;;;4996342;28;20460;-84
2023/01/28 09:05:49;;;;;;;4.50;4.10;;;13.70;55.90;;;;;;4990624;28;20473;-84
2023/01/28 09:08:17;;;;;;;5.50;4.43;;;13.90;56.00;;;;;;4998693;28;20507;-85
2023/01/28 09:10:45;;;;;;;6.20;4.40;;;14.10;56.20;;;;;;4997224;28;20504;-84
2023/01/28 09:13:14;;;;;;;5.10;4.37;;;14.30;56.00;;;;;;4996459;28;20457;-82
2023/01/28 09:15:42;;;;;;;5.33;4.13;;;14.40;56.00;;;;;;4997326;28;20445;-84
2023/01/28 09:18:12;;;;;;;4.30;4.00;;;14.40;56.20;;;;;;4996650;28;20457;-84
2023/01/28 09:20:40;;;;;;;4.10;3.70;;;14.40;56.20;;;;;;4997780;28;20477;-84
2023/01/28 09:23:08;;;;;;;4.70;4.23;;;14.40;56.30;;;;;;4996678;28;20484;-83
2023/01/28 09:25:36;;;;;;;5.33;4.37;;;14.40;56.40;;;;;;4997559;28;20480;-83
2023/01/28 09:28:05;;;;;;;4.83;4.33;;;14.40;56.60;;;;;;4995348;28;20536;-83
2023/01/28 09:30:33;;;;;;;4.07;3.77;;;14.40;56.70;;;;;;4998584;28;20542;-83
2023/01/28 09:33:04;;;;;;;4.10;3.70;;;14.40;56.90;;;;;;5000485;28;20449;-84
2023/01/28 09:35:34;;;;;;;4.97;4.50;;;14.40;56.80;;;;;;4996984;28;20536;-83
2023/01/28 09:38:02;;;;;;;5.10;4.27;;;14.40;56.90;;;;;;4999170;28;20525;-84
2023/01/28 09:40:34;;;;;;;4.63;4.23;;;14.40;56.90;;;;;;4998300;28;20480;-83
2023/01/28 09:43:24;;;;;;;4.87;4.00;;;14.40;56.80;;;;;;4998642;28;20544;-84
2023/01/28 09:45:52;;;;;;;4.60;4.20;;;14.50;56.90;;;;;;4994424;28;20560;-84
2023/01/28 09:48:22;;;;;;;4.20;3.80;;;14.50;57.00;;;;;;4997096;28;20465;-83
2023/01/28 09:50:52;;;;;;;4.30;4.00;;;14.50;57.00;;;;;;5002950;28;20473;-84
2023/01/28 09:53:22;;;;;;;4.60;4.20;;;14.60;57.60;;;;;;4997501;28;20464;-84
2023/01/28 09:55:51;;;;;;;4.57;4.17;;;14.60;57.20;;;;;;4993541;28;20469;-84
2023/01/28 09:58:19;;;;;;;4.60;4.10;;;14.90;57.60;;;;;;5002462;28;20456;-83
2023/01/28 10:00:51;;;;;;;4.23;3.83;;;15.10;57.30;;;;;;4997429;28;20473;-83
2023/01/28 10:03:28;;;;;;;4.70;4.20;;;15.20;57.10;;;;;;4996903;28;20452;-83
2023/01/28 10:06:02;;;;;;;4.23;3.83;;;15.40;57.40;;;;;;4991368;28;20560;-83
2023/01/28 10:08:39;;;;;;;4.10;3.80;;;15.50;57.20;;;;;;4995586;28;20459;-81
2023/01/28 10:11:12;;;;;;;3.83;3.53;;;15.70;57.60;;;;;;4993602;28;20481;-82
2023/01/28 10:13:42;;;;;;;3.80;3.43;;;15.80;57.40;;;;;;4996936;28;20449;-82
2023/01/28 10:16:16;;;;;;;4.50;4.10;;;15.80;57.40;;;;;;4995851;28;20452;-83
2023/01/28 10:18:45;;;;;;;4.47;4.07;;;15.80;57.80;;;;;;4996593;28;20485;-82
2023/01/28 10:21:16;;;;;;;4.00;3.70;;;15.90;57.80;;;;;;4998972;28;20461;-83
2023/01/28 10:23:48;;;;;;;3.50;3.30;;;16.10;58.30;;;;;;4998158;28;20449;-83
2023/01/28 10:26:33;;;;;;;3.90;3.60;;;16.30;58.40;;;;;;4997094;28;20524;-84
2023/01/28 10:29:03;;;;;;;4.00;3.70;;;16.50;58.60;;;;;;4991081;28;20453;-82
2023/01/28 10:31:34;;;;;;;5.60;3.67;;;16.80;58.70;;;;;;4993064;28;20496;-84
2023/01/28 10:34:03;;;;;;;4.57;3.60;;;17.00;59.00;;;;;;4996275;28;20480;-83
2023/01/28 10:36:32;;;;;;;4.10;3.70;;;17.40;59.10;;;;;;4995202;28;20453;-82
2023/01/28 10:39:00;;;;;;;4.03;3.73;;;17.90;59.20;;;;;;5000265;28;20457;-83
2023/01/28 10:41:28;;;;;;;4.03;3.73;;;18.10;58.60;;;;;;4990536;28;20473;-82
2023/01/28 10:43:56;;;;;;;3.70;3.40;;;18.20;58.30;;;;;;4998664;28;20441;-82
2023/01/28 10:46:28;;;;;;;4.00;3.57;;;18.30;58.30;;;;;;4999152;28;20469;-83
2023/01/28 10:48:58;;;;;;;5.00;3.97;;;18.30;58.30;;;;;;4994767;28;20445;-83
2023/01/28 10:51:35;;;;;;;3.87;3.57;;;18.20;58.30;;;;;;4997320;28;20461;-83
2023/01/28 10:54:04;;;;;;;4.00;3.70;;;18.20;58.20;;;;;;4998208;28;20444;-82
2023/01/28 10:56:34;;;;;;;4.03;3.70;;;18.10;58.50;;;;;;4998425;28;20552;-84
2023/01/28 10:59:03;;;;;;;3.80;3.50;;;18.00;58.10;;;;;;4999192;28;20474;-83
2023/01/28 11:01:42;;;;;;;4.10;3.80;;;17.90;58.10;;;;;;4998580;28;20474;-84
2023/01/28 11:04:17;;;;;;;4.03;3.63;;;17.90;58.40;;;;;;4998183;28;20508;-84
2023/01/28 11:06:57;;;;;;;4.67;3.77;;;18.10;58.90;;;;;;4996991;28;20477;-84
2023/01/28 11:09:27;;;;;;;3.20;2.80;;;18.40;58.80;;;;;;4998929;28;20799;-84
2023/01/28 11:11:55;;;;;;;3.80;3.50;;;18.70;58.80;;;;;;4998790;28;20465;-83
2023/01/28 11:14:24;;;;;;;3.60;3.30;;;18.90;58.80;;;;;;4998679;28;20457;-81
2023/01/28 11:16:53;;;;;;;3.10;2.90;;;19.20;58.40;;;;;;4998997;28;20437;-83
2023/01/28 11:19:27;;;;;;;5.43;4.00;;;19.50;58.50;;;;;;5000504;28;20441;-83
2023/01/28 11:21:56;;;;;;;4.40;3.97;;;19.70;58.30;;;;;;4992581;28;20593;-83
2023/01/28 11:24:26;;;;;;;4.10;3.80;;;19.90;58.20;;;;;;4998139;28;20455;-84
2023/01/28 11:26:55;;;;;;;4.43;4.03;;;20.20;58.10;;;;;;4999142;28;20484;-83
2023/01/28 11:29:26;;;;;;;4.90;4.50;;;20.50;58.00;;;;;;5000298;28;20445;-84
2023/01/28 11:31:54;;;;;;;6.03;5.10;;;20.70;57.50;;;;;;5000082;28;20530;-83
2023/01/28 11:34:25;;;;;;;5.97;4.67;;;20.90;57.30;;;;;;4996791;28;20457;-83
2023/01/28 11:36:54;;;;;;;8.97;5.30;;;21.20;57.20;;;;;;5005718;28;20445;-83
2023/01/28 11:39:24;;;;;;;5.60;5.00;;;21.40;56.70;;;;;;4994639;28;20513;-83
2023/01/28 11:41:53;;;;;;;8.20;5.17;;;21.70;56.50;;;;;;5012877;28;20459;-84
2023/01/28 11:44:21;;;;;;;6.27;5.50;;;22.10;56.30;;;;;;5001571;28;20816;-84
2023/01/28 11:47:00;;;;;;;5.90;5.40;;;22.40;55.90;;;;;;4995794;28;20474;-84
2023/01/28 11:49:34;;;;;;;6.53;5.63;;;22.60;55.00;;;;;;4993233;28;20528;-84
2023/01/28 11:52:05;;;;;;;7.00;6.10;;;22.60;55.00;;;;;;4999717;28;20464;-83
2023/01/28 11:54:41;;;;;;;7.70;5.17;;;22.60;54.70;;;;;;4996032;28;20523;-84
2023/01/28 11:57:23;;;;;;;7.63;5.50;;;22.80;55.00;;;;;;4999233;28;20457;-83
2023/01/28 11:59:57;;;;;;;5.77;5.17;;;23.10;54.80;;;;;;5006976;28;20493;-84
2023/01/28 12:02:45;;;;;;;5.83;5.23;;;23.40;54.60;;;;;;4997946;28;20449;-84
2023/01/28 12:05:20;;;;;;;5.70;5.10;;;23.80;54.10;;;;;;5004254;28;20469;-83
2023/01/28 12:07:52;;;;;;;5.20;4.70;;;24.20;53.70;;;;;;4993091;28;20452;-82
2023/01/28 12:10:24;;;;;;;5.90;4.90;;;24.40;53.10;;;;;;4997017;28;20469;-83
2023/01/28 12:13:03;;;;;;;5.87;4.90;;;24.50;52.60;;;;;;4991921;28;20423;-84
2023/01/28 12:15:48;;;;;;;6.00;5.10;;;24.50;52.10;;;;;;4988519;28;20471;-83
2023/01/28 12:18:23;;;;;;;5.30;4.80;;;24.20;51.70;;;;;;4996588;28;20527;-83
2023/01/28 12:20:52;;;;;;;5.50;4.63;;;23.90;51.80;;;;;;4995922;28;20468;-83
2023/01/28 12:23:30;;;;;;;5.93;4.90;;;23.50;51.80;;;;;;4994665;28;20528;-83
2023/01/28 12:26:06;;;;;;;5.13;4.50;;;23.20;52.00;;;;;;4995285;28;20547;-82
2023/01/28 12:28:43;;;;;;;5.03;4.60;;;23.00;52.30;;;;;;5001057;28;20448;-83
2023/01/28 12:31:20;;;;;;;5.40;4.90;;;22.70;52.40;;;;;;5006983;28;20515;-82
2023/01/28 12:33:56;;;;;;;6.00;5.03;;;22.40;52.70;;;;;;5000136;28;20453;-82
2023/01/28 12:36:30;;;;;;;5.63;5.13;;;22.20;52.80;;;;;;5001664;28;20428;-84
2023/01/28 12:39:03;;;;;;;5.70;5.10;;;21.90;53.00;;;;;;5006543;28;20552;-83
2023/01/28 12:41:34;;;;;;;5.90;5.30;;;21.70;53.10;;;;;;4997621;28;20479;-84
2023/01/28 12:44:05;;;;;;;6.67;5.20;;;21.50;53.40;;;;;;4999757;28;20454;-83
2023/01/28 12:46:38;;;;;;;5.23;4.73;;;21.30;53.50;;;;;;4997026;28;20512;-82
2023/01/28 12:49:08;;;;;;;5.17;4.67;;;21.10;53.60;;;;;;5002980;28;20448;-84
2023/01/28 12:51:41;;;;;;;5.90;4.97;;;21.00;53.90;;;;;;5002895;28;20500;-82
2023/01/28 12:54:12;;;;;;;6.07;5.30;;;20.80;53.80;;;;;;5011579;28;20502;-84
2023/01/28 12:56:44;;;;;;;4.97;4.57;;;20.70;54.00;;;;;;5008401;28;20547;-84
2023/01/28 12:59:14;;;;;;;5.13;4.57;;;20.60;54.10;;;;;;5010863;28;20469;-84
2023/01/28 13:01:44;;;;;;;4.97;4.47;;;20.50;54.20;;;;;;5000829;28;20473;-84
2023/01/28 13:04:16;;;;;;;8.70;4.80;;;20.40;54.20;;;;;;4997489;28;20458;-84
2023/01/28 13:06:46;;;;;;;5.90;4.90;;;20.30;54.20;;;;;;4998617;28;20426;-84
2023/01/28 13:09:16;;;;;;;4.90;4.23;;;20.30;54.40;;;;;;4996194;28;20442;-84
2023/01/28 13:11:46;;;;;;;6.33;4.47;;;20.30;54.40;;;;;;5010996;28;20461;-84
2023/01/28 13:14:14;;;;;;;6.23;4.20;;;20.30;54.20;;;;;;4999018;28;20533;-84
2023/01/28 13:16:42;;;;;;;4.70;4.00;;;20.30;54.00;;;;;;5006075;28;20480;-84
2023/01/28 13:19:22;;;;;;;4.60;4.20;;;20.50;54.30;;;;;;4999450;28;20473;-83
2023/01/28 13:21:50;;;;;;;5.37;4.43;;;20.60;53.80;;;;;;5002002;28;20539;-84
2023/01/28 13:24:23;;;;;;;4.13;3.80;;;20.90;54.40;;;;;;4998961;28;20438;-83
2023/01/28 13:26:53;;;;;;;4.17;3.87;;;21.40;54.80;;;;;;4999254;28;20473;-84
2023/01/28 13:29:28;;;;;;;3.80;3.50;;;21.90;53.70;;;;;;5001014;28;20436;-82
2023/01/28 13:31:57;;;;;;;4.60;3.97;;;22.30;52.70;;;;;;5001443;28;20443;-82
2023/01/28 13:34:32;;;;;;;4.37;3.90;;;22.30;51.80;;;;;;5009167;28;20446;-84
2023/01/28 13:37:05;;;;;;;4.47;4.07;;;22.20;51.60;;;;;;5001530;28;20423;-84
2023/01/28 13:39:33;;;;;;;3.87;3.57;;;22.10;51.60;;;;;;4997640;28;20559;-83